createdAt,value
2022-08-19T00:00:12.969Z,0
2022-08-19T00:01:11.180Z,0
2022-08-19T00:02:10.409Z,0
2022-08-19T00:03:10.531Z,0
2022-08-19T00:04:10.620Z,0
2022-08-19T00:05:10.594Z,0
2022-08-19T00:06:10.866Z,0
2022-08-19T00:07:11.054Z,0
2022-08-19T00:08:10.580Z,0
2022-08-19T00:09:10.863Z,0
2022-08-19T00:10:11.284Z,0
2022-08-19T00:11:18.668Z,0
2022-08-19T00:12:11.145Z,0
2022-08-19T00:13:10.422Z,0
2022-08-19T00:14:10.361Z,0
2022-08-19T00:15:15.625Z,0
2022-08-19T00:16:10.731Z,0
2022-08-19T00:17:10.784Z,0
2022-08-19T00:18:10.856Z,0
2022-08-19T00:19:10.575Z,0
2022-08-19T00:20:10.664Z,0
2022-08-19T00:21:11.551Z,0
2022-08-19T00:22:10.769Z,0
2022-08-19T00:23:10.900Z,0
2022-08-19T00:24:10.930Z,0
2022-08-19T00:25:13.260Z,0
2022-08-19T00:26:10.578Z,0
2022-08-19T00:27:29.993Z,0
2022-08-19T00:28:10.256Z,0
2022-08-19T00:29:10.173Z,0
2022-08-19T00:30:10.689Z,0
2022-08-19T00:31:10.669Z,0
2022-08-19T00:32:14.407Z,0
2022-08-19T00:33:10.373Z,0
2022-08-19T00:34:10.344Z,0
2022-08-19T00:35:10.467Z,0
2022-08-19T00:36:10.444Z,0
2022-08-19T00:37:11.481Z,0
2022-08-19T00:38:10.512Z,0
2022-08-19T00:39:10.642Z,0
2022-08-19T00:40:10.717Z,0
2022-08-19T00:41:10.459Z,6
2022-08-19T00:42:10.495Z,0
2022-08-19T00:43:10.560Z,0
2022-08-19T00:44:10.666Z,0
2022-08-19T00:45:10.846Z,9
2022-08-19T00:46:10.923Z,18.82
2022-08-19T00:47:17.730Z,0
2022-08-19T00:49:10.378Z,0
2022-08-19T00:50:10.336Z,0
2022-08-19T00:51:10.567Z,0
2022-08-19T00:52:10.562Z,0
2022-08-19T00:53:10.555Z,0
2022-08-19T00:54:10.876Z,0
2022-08-19T00:55:10.760Z,0
2022-08-19T00:56:10.652Z,0
2022-08-19T00:57:10.569Z,0
2022-08-19T00:58:10.593Z,0
2022-08-19T00:59:10.757Z,0
2022-08-19T01:00:12.208Z,0
2022-08-19T01:01:10.572Z,0
2022-08-19T01:02:10.434Z,0
2022-08-19T01:03:10.530Z,0
2022-08-19T01:04:10.442Z,0
2022-08-19T01:05:10.589Z,0
2022-08-19T01:06:10.356Z,0
2022-08-19T01:07:13.108Z,0
2022-08-19T01:08:10.679Z,0
2022-08-19T01:09:10.742Z,0
2022-08-19T01:10:10.753Z,0
2022-08-19T01:11:10.705Z,0
2022-08-19T01:12:10.816Z,0
2022-08-19T01:13:10.980Z,0
2022-08-19T01:14:10.877Z,0
2022-08-19T01:15:11.440Z,0
2022-08-19T01:16:10.474Z,0
2022-08-19T01:17:10.388Z,0
2022-08-19T01:18:10.523Z,0
2022-08-19T01:19:10.736Z,0
2022-08-19T01:20:11.181Z,0
2022-08-19T01:21:10.381Z,0
2022-08-19T01:23:10.670Z,0
2022-08-19T01:24:11.055Z,0
2022-08-19T01:25:18.436Z,0
2022-08-19T01:26:11.373Z,0
2022-08-19T01:27:14.449Z,0
2022-08-19T01:28:14.915Z,0
2022-08-19T01:29:10.637Z,0
2022-08-19T01:30:11.704Z,0
2022-08-19T01:31:11.676Z,0
2022-08-19T01:32:36.006Z,0
2022-08-19T01:33:10.282Z,0
2022-08-19T01:34:10.194Z,0
2022-08-19T01:35:10.251Z,0
2022-08-19T01:36:10.508Z,0
2022-08-19T01:37:10.575Z,0
2022-08-19T01:38:10.751Z,0
2022-08-19T01:39:10.438Z,0
2022-08-19T01:40:13.139Z,0
2022-08-19T01:41:14.635Z,0
2022-08-19T01:42:10.381Z,0
2022-08-19T01:43:10.610Z,0
2022-08-19T01:44:22.392Z,0
2022-08-19T01:45:10.858Z,0
2022-08-19T01:46:10.905Z,0
2022-08-19T01:47:10.844Z,0
2022-08-19T01:48:10.878Z,0
2022-08-19T01:49:10.922Z,0
2022-08-19T01:50:11.148Z,0
2022-08-19T01:51:10.411Z,0
2022-08-19T01:52:10.456Z,0
2022-08-19T01:53:11.224Z,0
2022-08-19T01:54:10.896Z,0
2022-08-19T01:55:10.991Z,0
2022-08-19T01:56:10.301Z,0
2022-08-19T01:57:10.312Z,0
2022-08-19T01:58:10.353Z,0
2022-08-19T01:59:10.433Z,0
2022-08-19T02:00:11.782Z,0
2022-08-19T02:01:11.169Z,0
2022-08-19T02:02:10.588Z,0
2022-08-19T02:03:10.622Z,0
2022-08-19T02:04:10.665Z,0
2022-08-19T02:05:14.059Z,0
2022-08-19T02:06:10.108Z,0
2022-08-19T02:07:10.344Z,0
2022-08-19T02:08:10.500Z,0
2022-08-19T02:09:10.506Z,0
2022-08-19T02:10:16.641Z,0
2022-08-19T02:11:11.091Z,0
2022-08-19T02:12:10.304Z,0
2022-08-19T02:13:10.313Z,0
2022-08-19T02:14:10.776Z,0
2022-08-19T02:15:11.096Z,0
2022-08-19T02:16:10.297Z,0
2022-08-19T02:17:10.525Z,0
2022-08-19T02:18:10.772Z,3
2022-08-19T02:19:10.740Z,0
2022-08-19T02:20:10.726Z,3
2022-08-19T02:21:10.963Z,0
2022-08-19T02:22:10.862Z,0
2022-08-19T02:23:19.528Z,0
2022-08-19T02:24:10.557Z,0
2022-08-19T02:25:10.804Z,0
2022-08-19T02:26:10.837Z,0
2022-08-19T02:27:10.743Z,0
2022-08-19T02:28:10.893Z,0
2022-08-19T02:29:10.903Z,0
2022-08-19T02:30:17.787Z,0
2022-08-19T02:31:10.940Z,0
2022-08-19T02:32:11.042Z,0
2022-08-19T02:33:10.461Z,0
2022-08-19T02:34:10.452Z,0
2022-08-19T02:35:16.446Z,0
2022-08-19T02:36:10.620Z,0
2022-08-19T02:37:10.840Z,0
2022-08-19T02:38:10.857Z,0
2022-08-19T02:39:11.066Z,0
2022-08-19T02:40:16.272Z,0
2022-08-19T02:41:10.718Z,0
2022-08-19T02:42:11.039Z,0
2022-08-19T02:43:10.422Z,0
2022-08-19T02:44:34.864Z,0
2022-08-19T02:45:11.533Z,0
2022-08-19T02:46:10.693Z,0
2022-08-19T02:47:11.352Z,0
2022-08-19T02:48:24.836Z,0
2022-08-19T02:49:10.887Z,0
2022-08-19T02:50:11.141Z,0
2022-08-19T02:51:10.252Z,0
2022-08-19T02:52:10.653Z,0
2022-08-19T02:53:10.723Z,0
2022-08-19T02:54:10.667Z,0
2022-08-19T02:55:10.913Z,0
2022-08-19T02:56:11.067Z,0
2022-08-19T02:57:10.350Z,0
2022-08-19T02:58:11.605Z,0
2022-08-19T02:59:11.491Z,0
2022-08-19T03:00:11.964Z,0
2022-08-19T03:01:11.597Z,0
2022-08-19T03:02:10.934Z,0
2022-08-19T03:03:11.016Z,0
2022-08-19T03:04:10.421Z,0
2022-08-19T03:05:10.798Z,0
2022-08-19T03:06:10.631Z,0
2022-08-19T03:07:14.833Z,0
2022-08-19T03:08:10.734Z,0
2022-08-19T03:09:10.754Z,0
2022-08-19T03:10:10.967Z,0
2022-08-19T03:11:10.858Z,0
2022-08-19T03:12:10.975Z,0
2022-08-19T03:13:11.089Z,0
2022-08-19T03:14:10.573Z,0
2022-08-19T03:15:10.818Z,0
2022-08-19T03:16:10.784Z,0
2022-08-19T03:17:10.779Z,0
2022-08-19T03:18:12.318Z,0
2022-08-19T03:19:10.342Z,0
2022-08-19T03:20:10.563Z,0
2022-08-19T03:21:13.991Z,0
2022-08-19T03:22:10.232Z,0
2022-08-19T03:23:10.245Z,0
2022-08-19T03:24:10.538Z,0
2022-08-19T03:25:10.708Z,0
2022-08-19T03:27:10.838Z,0
2022-08-19T03:28:11.115Z,0
2022-08-19T03:29:13.245Z,0
2022-08-19T03:30:15.240Z,0
2022-08-19T03:31:52.147Z,0
2022-08-19T03:32:33.240Z,0
2022-08-19T03:33:11.690Z,0
2022-08-19T03:34:11.432Z,0
2022-08-19T03:35:10.478Z,0
2022-08-19T03:36:10.716Z,0
2022-08-19T03:37:10.876Z,0
2022-08-19T03:38:10.892Z,0
2022-08-19T03:39:10.831Z,0
2022-08-19T03:40:17.140Z,0
2022-08-19T03:41:10.389Z,0
2022-08-19T03:43:04.036Z,0
2022-08-19T03:43:11.443Z,0
2022-08-19T03:44:18.149Z,0
2022-08-19T03:45:11.418Z,0
2022-08-19T03:46:10.580Z,0
2022-08-19T03:47:10.971Z,0
2022-08-19T03:48:11.435Z,0
2022-08-19T03:49:10.437Z,0
2022-08-19T03:50:10.483Z,0
2022-08-19T03:51:10.651Z,0
2022-08-19T03:52:10.620Z,0
2022-08-19T03:53:10.528Z,0
2022-08-19T03:54:10.797Z,0
2022-08-19T03:55:11.211Z,0
2022-08-19T03:56:10.521Z,0
2022-08-19T03:57:10.543Z,0
2022-08-19T03:58:10.406Z,0
2022-08-19T03:59:10.386Z,0
2022-08-19T04:00:17.679Z,0
2022-08-19T04:01:10.589Z,0
2022-08-19T04:02:10.838Z,0
2022-08-19T04:03:10.946Z,0
2022-08-19T04:04:12.854Z,0
2022-08-19T04:05:11.093Z,0
2022-08-19T04:06:10.432Z,0
2022-08-19T04:07:11.003Z,0
2022-08-19T04:08:16.888Z,0
2022-08-19T04:09:11.120Z,0
2022-08-19T04:10:14.106Z,0
2022-08-19T04:11:10.624Z,0
2022-08-19T04:12:10.586Z,0
2022-08-19T04:13:10.714Z,0
2022-08-19T04:14:10.578Z,0
2022-08-19T04:15:11.248Z,0
2022-08-19T04:16:10.407Z,0
2022-08-19T04:17:11.004Z,0
2022-08-19T04:18:10.286Z,0
2022-08-19T04:19:10.467Z,0
2022-08-19T04:20:11.545Z,0
2022-08-19T04:21:10.753Z,0
2022-08-19T04:22:10.891Z,0
2022-08-19T04:23:10.950Z,0
2022-08-19T04:24:11.375Z,0
2022-08-19T04:25:11.127Z,0
2022-08-19T04:26:13.053Z,0
2022-08-19T04:27:10.464Z,0
2022-08-19T04:28:10.550Z,0
2022-08-19T04:29:15.853Z,0
2022-08-19T04:30:11.620Z,0
2022-08-19T04:31:10.827Z,0
2022-08-19T04:32:13.313Z,0
2022-08-19T04:33:16.009Z,0
2022-08-19T04:34:10.611Z,0
2022-08-19T04:35:24.991Z,0
2022-08-19T04:36:10.401Z,0
2022-08-19T04:37:10.296Z,0
2022-08-19T04:38:10.237Z,0
2022-08-19T04:39:10.518Z,0
2022-08-19T04:40:10.917Z,0
2022-08-19T04:41:10.279Z,0
2022-08-19T04:42:10.541Z,0
2022-08-19T04:43:10.715Z,0
2022-08-19T04:44:10.781Z,0
2022-08-19T04:45:14.860Z,0
2022-08-19T04:46:10.876Z,0
2022-08-19T04:47:14.926Z,0
2022-08-19T04:48:30.837Z,0
2022-08-19T04:49:17.160Z,0
2022-08-19T04:50:11.869Z,0
2022-08-19T04:51:11.017Z,0
2022-08-19T04:52:10.353Z,0
2022-08-19T04:53:10.353Z,0
2022-08-19T04:54:10.549Z,0
2022-08-19T04:55:10.816Z,0
2022-08-19T04:56:10.849Z,0
2022-08-19T04:57:11.671Z,0
2022-08-19T04:58:10.678Z,0
2022-08-19T04:59:10.831Z,0
2022-08-19T05:00:12.419Z,0
2022-08-19T05:01:10.528Z,0
2022-08-19T05:02:10.957Z,0
2022-08-19T05:03:11.200Z,0
2022-08-19T05:04:10.458Z,0
2022-08-19T05:05:10.489Z,0
2022-08-19T05:06:10.681Z,0
2022-08-19T05:07:10.948Z,0
2022-08-19T05:08:11.074Z,0
2022-08-19T05:09:10.472Z,0
2022-08-19T05:10:10.699Z,0
2022-08-19T05:11:11.839Z,0
2022-08-19T05:12:10.383Z,0
2022-08-19T05:13:10.439Z,0
2022-08-19T05:14:10.528Z,0
2022-08-19T05:15:11.051Z,0
2022-08-19T05:16:10.295Z,0
2022-08-19T05:17:34.931Z,0
2022-08-19T05:18:10.985Z,0
2022-08-19T05:19:10.152Z,0
2022-08-19T05:20:10.456Z,0
2022-08-19T05:21:10.488Z,0
2022-08-19T05:22:10.548Z,0
2022-08-19T05:23:24.130Z,0
2022-08-19T05:24:10.320Z,0
2022-08-19T05:25:16.824Z,0
2022-08-19T05:26:11.362Z,0
2022-08-19T05:27:10.714Z,0
2022-08-19T05:28:10.864Z,0
2022-08-19T05:29:11.111Z,0
2022-08-19T05:30:11.076Z,0
2022-08-19T05:31:10.387Z,0
2022-08-19T05:32:10.704Z,0
2022-08-19T05:33:11.400Z,0
2022-08-19T05:34:23.491Z,0
2022-08-19T05:35:10.849Z,0
2022-08-19T05:36:11.393Z,0
2022-08-19T05:37:10.912Z,9
2022-08-19T05:38:11.247Z,18.25
2022-08-19T05:39:13.373Z,18.26
2022-08-19T05:40:10.937Z,3
2022-08-19T05:41:11.358Z,0
2022-08-19T05:42:10.751Z,0
2022-08-19T05:43:10.952Z,0
2022-08-19T05:44:11.393Z,15
2022-08-19T05:45:12.321Z,18.39
2022-08-19T05:46:10.927Z,18.40
2022-08-19T05:47:11.249Z,18.42
2022-08-19T05:48:10.636Z,18.42
2022-08-19T05:49:10.871Z,18.43
2022-08-19T05:50:11.070Z,18.45
2022-08-19T05:51:10.534Z,18.48
2022-08-19T05:52:10.838Z,18.49
2022-08-19T05:53:10.753Z,18.51
2022-08-19T05:54:10.861Z,18.54
2022-08-19T05:55:11.742Z,18.58
2022-08-19T05:56:10.857Z,18.61
2022-08-19T05:57:13.350Z,15
2022-08-19T05:58:10.438Z,3
2022-08-19T05:59:10.645Z,0
2022-08-19T06:00:12.297Z,0
2022-08-19T06:01:10.420Z,0
2022-08-19T06:02:11.257Z,15
2022-08-19T06:03:16.198Z,18.70
2022-08-19T06:04:10.879Z,18.73
2022-08-19T06:05:11.517Z,18.74
2022-08-19T06:06:10.815Z,12
2022-08-19T06:07:16.492Z,18.77
2022-08-19T06:08:10.875Z,18.78
2022-08-19T06:09:10.966Z,18.78
2022-08-19T06:10:11.613Z,18.78
2022-08-19T06:11:11.078Z,18.78
2022-08-19T06:12:10.932Z,18.81
2022-08-19T06:13:11.161Z,3
2022-08-19T06:14:16.487Z,0
2022-08-19T06:15:11.625Z,0
2022-08-19T06:16:11.045Z,3
2022-08-19T06:17:11.077Z,0
2022-08-19T06:18:10.567Z,0
2022-08-19T06:19:10.946Z,0
2022-08-19T06:20:11.479Z,0
2022-08-19T06:21:10.666Z,0
2022-08-19T06:22:10.772Z,0
2022-08-19T06:23:11.062Z,0
2022-08-19T06:24:10.335Z,0
2022-08-19T06:25:10.679Z,0
2022-08-19T06:26:11.102Z,0
2022-08-19T06:27:10.838Z,0
2022-08-19T06:29:10.563Z,0
2022-08-19T06:30:11.698Z,0
2022-08-19T06:31:11.027Z,0
2022-08-19T06:32:10.843Z,0
2022-08-19T06:33:11.230Z,3
2022-08-19T06:34:10.571Z,0
2022-08-19T06:35:10.790Z,0
2022-08-19T06:36:11.185Z,0
2022-08-19T06:37:10.515Z,12
2022-08-19T06:38:10.610Z,19.23
2022-08-19T06:39:10.666Z,19.27
2022-08-19T06:40:11.833Z,19.31
2022-08-19T06:41:11.568Z,19.36
2022-08-19T06:42:13.846Z,19.39
2022-08-19T06:43:13.120Z,19.40
2022-08-19T06:44:16.722Z,19.39
2022-08-19T06:45:13.794Z,19.42
2022-08-19T06:46:10.865Z,11
2022-08-19T06:47:23.950Z,0
2022-08-19T06:48:11.740Z,3
2022-08-19T06:49:14.560Z,0
2022-08-19T06:50:11.108Z,0
2022-08-19T06:51:12.221Z,0
2022-08-19T06:52:10.471Z,0
2022-08-19T06:53:10.796Z,0
2022-08-19T06:54:23.650Z,0
2022-08-19T06:55:10.898Z,0
2022-08-19T06:56:11.096Z,0
2022-08-19T06:57:10.431Z,6
2022-08-19T06:58:10.650Z,19.68
2022-08-19T06:59:10.390Z,19.69
2022-08-19T07:00:16.954Z,6
2022-08-19T07:01:12.768Z,19.74
2022-08-19T07:02:11.060Z,19.74
2022-08-19T07:03:13.213Z,19.76
2022-08-19T07:04:15.832Z,19.76
2022-08-19T07:05:11.211Z,19.77
2022-08-19T07:06:44.189Z,19.79
2022-08-19T07:07:24.905Z,19.84
2022-08-19T07:08:10.931Z,19.84
2022-08-19T07:09:11.446Z,19.88
2022-08-19T07:10:11.261Z,19.94
2022-08-19T07:11:14.350Z,20.02
2022-08-19T07:12:12.406Z,20.03
2022-08-19T07:13:10.522Z,20.06
2022-08-19T07:14:23.092Z,20.13
2022-08-19T07:15:10.994Z,20.13
2022-08-19T07:16:10.643Z,20.16
2022-08-19T07:17:10.375Z,20.17
2022-08-19T07:18:15.393Z,20.18
2022-08-19T07:19:19.435Z,20.18
2022-08-19T07:20:13.902Z,20.18
2022-08-19T07:21:12.921Z,20.20
2022-08-19T07:22:17.361Z,20.20
2022-08-19T07:23:15.970Z,20.28
2022-08-19T07:24:11.123Z,20.30
2022-08-19T07:25:10.704Z,20.27
2022-08-19T07:26:12.164Z,20.35
2022-08-19T07:27:18.999Z,20.37
2022-08-19T07:28:24.128Z,20.37
2022-08-19T07:29:11.120Z,20.37
2022-08-19T07:30:15.426Z,20.41
2022-08-19T07:31:12.495Z,20.43
2022-08-19T07:32:17.218Z,20.45
2022-08-19T07:33:10.388Z,20.53
2022-08-19T07:34:10.551Z,20.59
2022-08-19T07:35:10.897Z,20.57
2022-08-19T07:36:11.482Z,20.55
2022-08-19T07:37:10.691Z,20.59
2022-08-19T07:38:10.903Z,20.61
2022-08-19T07:39:11.335Z,20.70
2022-08-19T07:40:11.015Z,6
2022-08-19T07:41:10.226Z,0
2022-08-19T07:42:10.695Z,0
2022-08-19T07:43:16.932Z,0
2022-08-19T07:44:10.882Z,0
2022-08-19T07:45:11.534Z,0
2022-08-19T07:47:51.384Z,0
2022-08-19T07:48:11.125Z,0
2022-08-19T07:49:10.436Z,0
2022-08-19T07:50:11.361Z,0
2022-08-19T07:51:10.503Z,0
2022-08-19T07:52:10.779Z,0
2022-08-19T07:53:11.323Z,3
2022-08-19T07:54:10.677Z,10
2022-08-19T07:55:44.491Z,21.04
2022-08-19T07:56:11.044Z,21.04
2022-08-19T07:57:10.647Z,21.08
2022-08-19T07:58:11.054Z,21.10
2022-08-19T07:59:10.547Z,21.14
2022-08-19T08:00:12.289Z,21.07
2022-08-19T08:01:10.839Z,21.01
2022-08-19T08:02:11.697Z,21.00
2022-08-19T08:03:11.065Z,21.05
2022-08-19T08:04:11.461Z,21.04
2022-08-19T08:05:10.907Z,21.04
2022-08-19T08:06:11.261Z,21.08
2022-08-19T08:07:10.631Z,21.04
2022-08-19T08:08:11.385Z,21.03
2022-08-19T08:09:11.362Z,21.06
2022-08-19T08:10:25.139Z,21.16
2022-08-19T08:11:11.844Z,21.16
2022-08-19T08:12:37.398Z,21.25
2022-08-19T08:13:14.544Z,21.25
2022-08-19T08:14:35.103Z,21.21
2022-08-19T08:15:12.737Z,21.21
2022-08-19T08:16:18.322Z,21.29
2022-08-19T08:17:14.733Z,21.31
2022-08-19T08:18:11.105Z,21.27
2022-08-19T08:19:29.332Z,21.28
2022-08-19T08:20:10.671Z,21.28
2022-08-19T08:21:10.712Z,21.34
2022-08-19T08:22:11.142Z,21.48
2022-08-19T08:23:10.807Z,21.54
2022-08-19T08:24:11.528Z,21.47
2022-08-19T08:25:11.348Z,21.46
2022-08-19T08:26:10.755Z,21.36
2022-08-19T08:27:15.007Z,21.25
2022-08-19T08:28:11.381Z,21.32
2022-08-19T08:29:15.987Z,21.37
2022-08-19T08:30:11.165Z,21.36
2022-08-19T08:31:13.403Z,21.38
2022-08-19T08:32:18.587Z,21.37
2022-08-19T08:33:12.197Z,21.51
2022-08-19T08:34:11.148Z,21.55
2022-08-19T08:35:10.727Z,21.64
2022-08-19T08:36:11.202Z,21.69
2022-08-19T08:37:10.738Z,21.69
2022-08-19T08:38:11.205Z,21.66
2022-08-19T08:39:10.687Z,21.68
2022-08-19T08:40:16.660Z,21.73
2022-08-19T08:41:11.029Z,21.70
2022-08-19T08:43:15.016Z,21.63
2022-08-19T08:44:11.037Z,21.68
2022-08-19T08:45:11.806Z,21.67
2022-08-19T08:46:15.893Z,21.72
2022-08-19T08:47:11.525Z,21.77
2022-08-19T08:48:26.155Z,21.73
2022-08-19T08:49:11.378Z,21.73
2022-08-19T08:50:10.626Z,21.82
2022-08-19T08:51:12.845Z,21.88
2022-08-19T08:52:10.743Z,21.82
2022-08-19T08:53:11.255Z,21.74
2022-08-19T08:54:13.352Z,21.83
2022-08-19T08:55:14.337Z,21.94
2022-08-19T08:56:10.730Z,21.95
2022-08-19T08:57:10.567Z,21.87
2022-08-19T08:58:10.731Z,21.87
2022-08-19T08:59:10.990Z,21.88
2022-08-19T09:01:11.419Z,21.85
2022-08-19T09:03:11.986Z,22.02
2022-08-19T09:04:10.571Z,22.08
2022-08-19T09:05:10.813Z,22.13
2022-08-19T09:06:15.830Z,22.09
2022-08-19T09:07:39.960Z,22.21
2022-08-19T09:08:12.160Z,22.21
2022-08-19T09:09:15.718Z,22.19
2022-08-19T09:10:14.226Z,22.25
2022-08-19T09:11:12.144Z,22.30
2022-08-19T09:12:15.249Z,22.25
2022-08-19T09:13:13.072Z,22.30
2022-08-19T09:14:23.544Z,22.35
2022-08-19T09:15:11.068Z,22.42
2022-08-19T09:16:10.783Z,22.52
2022-08-19T09:17:10.920Z,22.53
2022-08-19T09:18:19.246Z,22.50
2022-08-19T09:19:11.715Z,22.50
2022-08-19T09:20:13.008Z,22.42
2022-08-19T09:21:15.874Z,22.39
2022-08-19T09:22:10.875Z,22.40
2022-08-19T09:23:11.197Z,22.48
2022-08-19T09:24:10.842Z,22.56
2022-08-19T09:25:11.293Z,22.62
2022-08-19T09:26:16.330Z,22.63
2022-08-19T09:27:21.913Z,22.66
2022-08-19T09:28:30.389Z,22.73
2022-08-19T09:29:11.567Z,22.73
2022-08-19T09:30:11.619Z,22.88
2022-08-19T09:31:10.985Z,22.98
2022-08-19T09:32:30.020Z,22.89
2022-08-19T09:33:10.408Z,22.89
2022-08-19T09:34:24.476Z,22.72
2022-08-19T09:35:12.329Z,22.72
2022-08-19T09:36:12.239Z,22.71
2022-08-19T09:37:11.487Z,22.71
2022-08-19T09:38:14.002Z,22.76
2022-08-19T09:39:20.014Z,22.81
2022-08-19T09:40:12.766Z,22.81
2022-08-19T09:41:10.592Z,22.84
2022-08-19T09:43:33.276Z,22.83
2022-08-19T09:44:13.890Z,22.82
2022-08-19T09:45:14.019Z,22.91
2022-08-19T09:46:10.530Z,22.87
2022-08-19T09:47:11.132Z,22.78
2022-08-19T09:48:11.752Z,22.78
2022-08-19T09:49:10.984Z,22.87
2022-08-19T09:50:10.892Z,22.94
2022-08-19T09:51:15.435Z,22.97
2022-08-19T09:52:11.149Z,22.96
2022-08-19T09:53:11.093Z,22.98
2022-08-19T09:54:14.899Z,23.00
2022-08-19T09:55:11.424Z,23.02
2022-08-19T09:56:12.678Z,23.06
2022-08-19T09:57:11.027Z,23.15
2022-08-19T09:58:10.557Z,23.18
2022-08-19T09:59:11.033Z,23.28
2022-08-19T10:00:11.752Z,23.23
2022-08-19T10:01:11.179Z,23.23
2022-08-19T10:02:14.644Z,23.34
2022-08-19T10:03:11.899Z,23.30
2022-08-19T10:04:24.175Z,23.50
2022-08-19T10:05:10.684Z,23.50
2022-08-19T10:07:10.627Z,23.51
2022-08-19T10:08:17.401Z,23.50
2022-08-19T10:09:12.680Z,23.55
2022-08-19T10:10:11.052Z,23.63
2022-08-19T10:11:42.348Z,23.64
2022-08-19T10:12:15.095Z,23.64
2022-08-19T10:13:11.410Z,23.75
2022-08-19T10:14:10.806Z,23.69
2022-08-19T10:15:11.577Z,23.65
2022-08-19T10:16:11.131Z,23.58
2022-08-19T10:17:27.485Z,23.57
2022-08-19T10:18:10.951Z,23.57
2022-08-19T10:19:11.395Z,23.70
2022-08-19T10:20:11.564Z,23.59
2022-08-19T10:21:12.511Z,23.46
2022-08-19T10:22:15.940Z,23.36
2022-08-19T10:23:11.727Z,23.31
2022-08-19T10:24:13.080Z,23.36
2022-08-19T10:25:10.533Z,23.40
2022-08-19T10:26:10.618Z,23.42
2022-08-19T10:27:12.337Z,23.51
2022-08-19T10:28:14.590Z,23.59
2022-08-19T10:29:13.120Z,23.63
2022-08-19T10:30:13.916Z,23.72
2022-08-19T10:31:11.158Z,23.75
2022-08-19T10:32:14.370Z,23.79
2022-08-19T10:33:14.918Z,23.84
2022-08-19T10:34:27.453Z,23.86
2022-08-19T10:35:11.152Z,23.81
2022-08-19T10:36:11.172Z,23.70
2022-08-19T10:37:14.510Z,23.63
2022-08-19T10:38:13.952Z,23.62
2022-08-19T10:39:12.418Z,23.59
2022-08-19T10:40:11.702Z,23.58
2022-08-19T10:41:10.999Z,23.58
2022-08-19T10:42:10.741Z,23.65
2022-08-19T10:43:11.248Z,23.77
2022-08-19T10:44:10.903Z,23.72
2022-08-19T10:45:11.658Z,23.72
2022-08-19T10:47:31.733Z,23.87
2022-08-19T10:48:15.737Z,23.87
2022-08-19T10:49:11.031Z,23.94
2022-08-19T10:50:15.785Z,23.97
2022-08-19T10:51:11.348Z,23.85
2022-08-19T10:52:19.095Z,23.86
2022-08-19T10:53:13.447Z,23.97
2022-08-19T10:54:16.219Z,14
2022-08-19T10:55:12.124Z,23.95
2022-08-19T10:56:11.152Z,23.79
2022-08-19T10:57:10.589Z,23.78
2022-08-19T10:58:14.276Z,23.84
2022-08-19T10:59:10.805Z,23.90
2022-08-19T11:00:12.605Z,23.97
2022-08-19T11:01:11.603Z,24.05
2022-08-19T11:02:11.321Z,24.24
2022-08-19T11:03:13.256Z,20
2022-08-19T11:04:11.179Z,24.11
2022-08-19T11:05:17.493Z,24.03
2022-08-19T11:06:11.428Z,24.05
2022-08-19T11:07:11.075Z,23.99
2022-08-19T11:08:27.185Z,24.12
2022-08-19T11:09:10.935Z,24.12
2022-08-19T11:10:20.986Z,8
2022-08-19T11:11:11.260Z,0
2022-08-19T11:12:12.022Z,0
2022-08-19T11:13:11.509Z,0
2022-08-19T11:14:10.957Z,0
2022-08-19T11:15:12.021Z,4
2022-08-19T11:16:11.678Z,24.24
2022-08-19T11:17:11.593Z,0
2022-08-19T11:18:17.090Z,0
2022-08-19T11:19:10.458Z,0
2022-08-19T11:20:11.135Z,0
2022-08-19T11:21:10.623Z,0
2022-08-19T11:22:14.741Z,0
2022-08-19T11:23:11.286Z,0
2022-08-19T11:24:11.000Z,0
2022-08-19T11:25:10.908Z,0
2022-08-19T11:26:11.600Z,0
2022-08-19T11:27:11.306Z,0
2022-08-19T11:28:10.729Z,0
2022-08-19T11:29:11.038Z,0
2022-08-19T11:30:13.029Z,0
2022-08-19T11:31:10.539Z,12
2022-08-19T11:32:11.447Z,0
2022-08-19T11:33:11.075Z,4
2022-08-19T11:34:10.819Z,0
2022-08-19T11:35:11.331Z,0
2022-08-19T11:36:10.892Z,4
2022-08-19T11:37:10.529Z,24.42
2022-08-19T11:38:13.567Z,12
2022-08-19T11:39:11.097Z,16
2022-08-19T11:40:11.458Z,0
2022-08-19T11:41:11.512Z,0
2022-08-19T11:42:10.702Z,0
2022-08-19T11:43:11.412Z,0
2022-08-19T11:44:10.812Z,0
2022-08-19T11:45:11.625Z,0
2022-08-19T11:46:10.944Z,0
2022-08-19T11:47:13.019Z,0
2022-08-19T11:48:10.657Z,0
2022-08-19T11:49:17.636Z,0
2022-08-19T11:50:11.397Z,0
2022-08-19T11:51:10.985Z,0
2022-08-19T11:52:10.899Z,0
2022-08-19T11:53:14.861Z,0
2022-08-19T11:54:11.921Z,0
2022-08-19T11:55:11.777Z,0
2022-08-19T11:56:11.400Z,0
2022-08-19T11:57:11.066Z,8
2022-08-19T11:58:22.185Z,0
2022-08-19T11:59:15.147Z,0
2022-08-19T12:00:25.456Z,0
2022-08-19T12:01:10.847Z,0
2022-08-19T12:02:19.252Z,0
2022-08-19T12:03:10.538Z,0
2022-08-19T12:04:10.780Z,0
2022-08-19T12:05:16.557Z,0
2022-08-19T12:06:11.021Z,0
2022-08-19T12:07:10.765Z,0
2022-08-19T12:08:11.366Z,0
2022-08-19T12:09:11.029Z,12
2022-08-19T12:10:11.722Z,0
2022-08-19T12:11:10.999Z,0
2022-08-19T12:12:10.885Z,0
2022-08-19T12:13:11.708Z,0
2022-08-19T12:14:14.610Z,0
2022-08-19T12:15:12.105Z,0
2022-08-19T12:16:11.195Z,0
2022-08-19T12:17:11.275Z,0
2022-08-19T12:18:10.986Z,0
2022-08-19T12:19:11.093Z,0
2022-08-19T12:20:10.966Z,0
2022-08-19T12:21:11.169Z,0
2022-08-19T12:22:10.722Z,0
2022-08-19T12:23:11.275Z,4
2022-08-19T12:24:10.775Z,0
2022-08-19T12:25:11.404Z,24.96
2022-08-19T12:26:11.013Z,25.03
2022-08-19T12:27:23.881Z,25.11
2022-08-19T12:28:10.827Z,25.03
2022-08-19T12:29:11.309Z,24.93
2022-08-19T12:30:11.368Z,24.92
2022-08-19T12:31:11.161Z,25.03
2022-08-19T12:32:14.267Z,25.18
2022-08-19T12:33:10.965Z,25.09
2022-08-19T12:34:13.039Z,25.08
2022-08-19T12:35:10.766Z,25.12
2022-08-19T12:36:11.940Z,25.16
2022-08-19T12:37:11.491Z,25.07
2022-08-19T12:38:10.988Z,24.94
2022-08-19T12:39:14.287Z,24.99
2022-08-19T12:40:11.202Z,25.09
2022-08-19T12:41:11.095Z,25.14
2022-08-19T12:42:10.654Z,25.15
2022-08-19T12:43:11.141Z,25.11
2022-08-19T12:44:13.457Z,25.17
2022-08-19T12:45:12.168Z,25.23
2022-08-19T12:46:14.415Z,25.27
2022-08-19T12:47:13.531Z,25.14
2022-08-19T12:48:37.461Z,25.23
2022-08-19T12:49:53.791Z,25.29
2022-08-19T12:50:11.179Z,25.29
2022-08-19T12:51:10.589Z,25.24
2022-08-19T12:52:11.169Z,25.15
2022-08-19T12:53:10.589Z,25.18
2022-08-19T12:54:11.111Z,25.27
2022-08-19T12:55:10.568Z,25.33
2022-08-19T12:56:19.987Z,25.31
2022-08-19T12:57:10.786Z,25.38
2022-08-19T12:58:11.288Z,25.36
2022-08-19T12:59:10.888Z,25.31
2022-08-19T13:00:12.992Z,25.36
2022-08-19T13:01:10.974Z,25.54
2022-08-19T13:02:10.768Z,25.69
2022-08-19T13:03:11.399Z,25.65
2022-08-19T13:04:11.039Z,25.66
2022-08-19T13:05:10.661Z,25.60
2022-08-19T13:06:11.187Z,25.53
2022-08-19T13:07:10.959Z,25.51
2022-08-19T13:08:11.531Z,25.53
2022-08-19T13:09:11.376Z,25.53
2022-08-19T13:10:11.220Z,25.50
2022-08-19T13:11:10.793Z,25.45
2022-08-19T13:12:11.735Z,25.45
2022-08-19T13:13:11.226Z,25.52
2022-08-19T13:14:11.596Z,25.56
2022-08-19T13:15:15.217Z,25.53
2022-08-19T13:16:10.718Z,25.52
2022-08-19T13:17:11.391Z,25.53
2022-08-19T13:18:11.685Z,25.52
2022-08-19T13:19:10.960Z,25.53
2022-08-19T13:20:11.629Z,25.58
2022-08-19T13:21:11.872Z,25.59
2022-08-19T13:22:18.957Z,25.65
2022-08-19T13:23:11.718Z,8
2022-08-19T13:24:11.268Z,0
2022-08-19T13:25:10.725Z,12
2022-08-19T13:26:11.414Z,0
2022-08-19T13:27:10.896Z,4
2022-08-19T13:28:11.297Z,0
2022-08-19T13:29:11.712Z,0
2022-08-19T13:30:12.514Z,0
2022-08-19T13:31:11.361Z,4
2022-08-19T13:32:11.116Z,10
2022-08-19T13:33:11.193Z,0
2022-08-19T13:34:11.080Z,15
2022-08-19T13:35:14.839Z,3
2022-08-19T13:36:11.827Z,0
2022-08-19T13:37:10.851Z,4
2022-08-19T13:38:15.754Z,0
2022-08-19T13:39:11.665Z,0
2022-08-19T13:40:11.760Z,0
2022-08-19T13:41:18.537Z,0
2022-08-19T13:42:11.147Z,0
2022-08-19T13:43:27.020Z,0
2022-08-19T13:44:10.706Z,0
2022-08-19T13:45:11.811Z,0
2022-08-19T13:46:11.137Z,0
2022-08-19T13:47:11.089Z,0
2022-08-19T13:48:11.686Z,0
2022-08-19T13:49:10.809Z,10
2022-08-19T13:50:11.197Z,4
2022-08-19T13:51:10.706Z,0
2022-08-19T13:52:11.340Z,0
2022-08-19T13:53:10.982Z,0
2022-08-19T13:54:11.642Z,0
2022-08-19T13:55:11.395Z,0
2022-08-19T13:56:10.862Z,0
2022-08-19T13:57:11.122Z,0
2022-08-19T13:58:10.551Z,0
2022-08-19T13:59:10.759Z,0
2022-08-19T14:00:12.581Z,0
2022-08-19T14:01:11.137Z,0
2022-08-19T14:02:10.876Z,0
2022-08-19T14:03:13.019Z,8
2022-08-19T14:04:10.756Z,21
2022-08-19T14:05:11.447Z,26.07
2022-08-19T14:06:14.551Z,26.08
2022-08-19T14:07:10.957Z,26.08
2022-08-19T14:08:11.495Z,26.07
2022-08-19T14:09:11.380Z,26.09